| time (UTC) | temp C | wind direction | speed KPH | gust KPH | rain 1hr cm | rain 24hr cm | rain mn cm | humidity % | barometer mb |
| 20260507014520 | 12 | 205 | 4.8 | 12.9 | 0.00 | 0.38 | 0.38 | 96 | 1005.5 |
| 20260507013023 | 12 | 204 | 8.0 | 11.3 | 0.00 | 0.38 | 0.38 | 95 | 1005.4 |
| 20260507011533 | 12 | 204 | 8.0 | 14.5 | 0.00 | 0.38 | 0.38 | 95 | 1005.0 |
| 20260507010019 | 12 | 200 | 3.2 | 19.3 | 0.00 | 0.38 | 0.38 | 95 | 1005.0 |
| 20260507004518 | 12 | 194 | 4.8 | 14.5 | 0.00 | 0.38 | 0.38 | 96 | 1005.4 |
| 20260507003017 | 12 | 196 | 6.4 | 14.5 | 0.00 | 0.38 | 0.38 | 96 | 1005.4 |
| 20260507001544 | 12 | 193 | 8.0 | 12.9 | 0.00 | 0.38 | 0.38 | 96 | 1005.4 |
| 20260507000017 | 12 | 193 | 3.2 | 11.3 | 0.00 | 0.38 | 0.38 | 96 | 1005.4 |
| 20260506234517 | 12 | 193 | 6.4 | 16.1 | 0.00 | 0.38 | 0.38 | 96 | 1005.2 |
| 20260506233018 | 12 | 207 | 4.8 | 14.5 | 0.00 | 0.38 | 0.38 | 96 | 1005.1 |
| 20260506231517 | 12 | 183 | 8.0 | 22.5 | 0.00 | 0.38 | 0.38 | 95 | 1005.1 |
| 20260506230014 | 12 | 200 | 6.4 | 16.1 | 0.00 | 0.38 | 0.38 | 95 | 1005.0 |
| 20260506224516 | 12 | 198 | 6.4 | 20.9 | 0.00 | 0.38 | 0.38 | 95 | 1005.0 |
| 20260506223012 | 12 | 187 | 4.8 | 20.9 | 0.00 | 0.38 | 0.38 | 95 | 1004.9 |
| 20260506221511 | 12 | 194 | 3.2 | 16.1 | 0.00 | 0.38 | 0.38 | 95 | 1004.9 |
| 20260506220011 | 12 | 205 | 6.4 | 24.1 | 0.03 | 0.38 | 0.38 | 95 | 1004.9 |
| 20260506214509 | 12 | 209 | 9.7 | 17.7 | 0.08 | 0.38 | 0.38 | 94 | 1004.9 |
| 20260506213007 | 12 | 190 | 11.3 | 20.9 | 0.13 | 0.38 | 0.38 | 94 | 1004.8 |
| 20260506211503 | 13 | 205 | 9.7 | 17.7 | 0.15 | 0.38 | 0.38 | 94 | 1005.0 |
| 20260506210006 | 13 | 182 | 9.7 | 19.3 | 0.15 | 0.36 | 0.36 | 94 | 1005.1 |
| 20260506204501 | 13 | 153 | 12.9 | 20.9 | 0.10 | 0.30 | 0.30 | 94 | 1005.2 |
| 20260506203122 | 13 | 193 | 8.0 | 19.3 | 0.05 | 0.25 | 0.25 | 93 | 1005.4 |
| 20260506201600 | 13 | 155 | 8.0 | 22.5 | 0.03 | 0.23 | 0.23 | 93 | 1005.4 |
| 20260506194601 | 13 | 204 | 6.4 | 19.3 | 0.03 | 0.20 | 0.20 | 93 | 1005.6 |
| 20260506193105 | 13 | 189 | 6.4 | 22.5 | 0.10 | 0.20 | 0.20 | 93 | 1005.8 |
| 20260506191556 | 13 | 213 | 12.9 | 27.4 | 0.13 | 0.20 | 0.20 | 93 | 1006.0 |
| 20260506190055 | 13 | 213 | 9.7 | 25.7 | 0.15 | 0.20 | 0.20 | 93 | 1006.2 |
| 20260506184555 | 13 | 215 | 8.0 | 24.1 | 0.15 | 0.18 | 0.18 | 92 | 1006.1 |
| 20260506183100 | 13 | 205 | 11.3 | 19.3 | 0.10 | 0.10 | 0.10 | 91 | 1006.4 |
| 20260506181555 | 13 | 162 | 9.7 | 22.5 | 0.08 | 0.08 | 0.08 | 90 | 1006.6 |
| 20260506180051 | 13 | 213 | 9.7 | 17.7 | 0.05 | 0.05 | 0.05 | 89 | 1007.1 |
| 20260506174548 | 14 | 213 | 11.3 | 20.9 | 0.03 | 0.03 | 0.03 | 86 | 1007.4 |
| 20260506173051 | 15 | 193 | 12.9 | 22.5 | 0.00 | 0.00 | 0.00 | 83 | 1007.5 |
| 20260506171546 | 15 | 230 | 16.1 | 27.4 | 0.00 | 0.00 | 0.00 | 80 | 1007.6 |
| 20260506170053 | 15 | 227 | 16.1 | 29.0 | 0.00 | 0.00 | 0.00 | 80 | 1007.9 |
| 20260506164555 | 15 | 223 | 11.3 | 27.4 | 0.00 | 0.00 | 0.00 | 81 | 1008.0 |
| 20260506163051 | 15 | 221 | 16.1 | 32.2 | 0.00 | 0.00 | 0.00 | 80 | 1007.8 |
| 20260506161546 | 16 | 201 | 12.9 | 29.0 | 0.00 | 0.00 | 0.00 | 79 | 1008.1 |
| 20260506160054 | 16 | 215 | 12.9 | 37.0 | 0.00 | 0.00 | 0.00 | 79 | 1008.1 |
| 20260506154544 | 16 | 234 | 8.0 | 20.9 | 0.00 | 0.00 | 0.00 | 78 | 1008.4 |
| 20260506153041 | 16 | 217 | 8.0 | 22.5 | 0.00 | 0.00 | 0.00 | 77 | 1008.4 |
| 20260506151541 | 16 | 207 | 8.0 | 27.4 | 0.00 | 0.00 | 0.00 | 77 | 1008.5 |
| 20260506150049 | 17 | 226 | 12.9 | 27.4 | 0.00 | 0.00 | 0.00 | 75 | 1008.5 |
| 20260506144540 | 16 | 207 | 12.9 | 27.4 | 0.00 | 0.00 | 0.00 | 76 | 1008.5 |
| 20260506143040 | 16 | 232 | 12.9 | 30.6 | 0.00 | 0.00 | 0.00 | 76 | 1008.6 |
| 20260506141542 | 16 | 185 | 6.4 | 27.4 | 0.00 | 0.00 | 0.00 | 78 | 1008.7 |
| 20260506140037 | 16 | 213 | 19.3 | 29.0 | 0.00 | 0.00 | 0.00 | 77 | 1008.6 |
| 20260506134536 | 16 | 225 | 11.3 | 32.2 | 0.00 | 0.00 | 0.00 | 78 | 1008.5 |
| 20260506133042 | 16 | 150 | 16.1 | 27.4 | 0.00 | 0.00 | 0.00 | 77 | 1008.4 |
| 20260506131535 | 16 | 225 | 22.5 | 38.6 | 0.00 | 0.00 | 0.00 | 78 | 1008.3 |
| 20260506130034 | 16 | 207 | 19.3 | 35.4 | 0.00 | 0.00 | 0.00 | 78 | 1008.6 |
| 20260506124531 | 16 | 164 | 9.7 | 25.7 | 0.00 | 0.00 | 0.00 | 79 | 1008.8 |
| 20260506123029 | 15 | 173 | 9.7 | 25.7 | 0.00 | 0.00 | 0.00 | 80 | 1009.0 |
| 20260506121527 | 15 | 212 | 11.3 | 30.6 | 0.00 | 0.00 | 0.00 | 81 | 1008.7 |
| 20260506120047 | 15 | 173 | 9.7 | 22.5 | 0.00 | 0.00 | 0.00 | 83 | 1008.8 |
| 20260506114525 | 15 | 205 | 8.0 | 25.7 | 0.00 | 0.00 | 0.00 | 84 | 1008.9 |
| 20260506113024 | 14 | 187 | 4.8 | 22.5 | 0.00 | 0.00 | 0.00 | 85 | 1008.9 |
| 20260506111523 | 13 | 182 | 9.7 | 20.9 | 0.00 | 0.00 | 0.00 | 86 | 1008.8 |
| 20260506110025 | 13 | 172 | 14.5 | 20.9 | 0.00 | 0.00 | 0.00 | 87 | 1009.0 |
| 20260506104535 | 13 | 205 | 9.7 | 19.3 | 0.00 | 0.00 | 0.00 | 88 | 1009.0 |
| 20260506103036 | 13 | 184 | 6.4 | 16.1 | 0.00 | 0.00 | 0.00 | 88 | 1008.7 |
| 20260506101520 | 13 | 198 | 6.4 | 16.1 | 0.00 | 0.00 | 0.00 | 88 | 1008.7 |
| 20260506100019 | 13 | 202 | 8.0 | 14.5 | 0.00 | 0.00 | 0.00 | 88 | 1008.6 |
| 20260506094518 | 13 | 197 | 8.0 | 14.5 | 0.00 | 0.00 | 0.00 | 88 | 1008.7 |
| 20260506093021 | 13 | 195 | 8.0 | 14.5 | 0.00 | 0.00 | 0.00 | 87 | 1008.7 |
| 20260506091518 | 13 | 193 | 8.0 | 19.3 | 0.00 | 0.00 | 0.00 | 86 | 1008.7 |
| 20260506090015 | 13 | 209 | 8.0 | 12.9 | 0.00 | 0.00 | 0.00 | 86 | 1008.9 |
| 20260506084530 | 13 | 192 | 4.8 | 20.9 | 0.00 | 0.00 | 0.00 | 86 | 1009.1 |
| 20260506083013 | 13 | 217 | 11.3 | 22.5 | 0.00 | 0.00 | 0.00 | 86 | 1009.2 |
| 20260506081512 | 13 | 221 | 11.3 | 25.7 | 0.00 | 0.00 | 0.00 | 85 | 1009.2 |
| 20260506073007 | 14 | 203 | 9.7 | 33.8 | 0.00 | 0.00 | 0.00 | 83 | 1009.2 |
| 20260506071505 | 14 | 220 | 14.5 | 25.7 | 0.00 | 0.00 | 0.00 | 83 | 1009.2 |
| 20260506061558 | 14 | 216 | 4.8 | 20.9 | 0.00 | 0.00 | 0.00 | 81 | 1009.2 |
| 20260506044549 | 15 | 217 | 9.7 | 20.9 | 0.00 | 0.00 | 0.00 | 79 | 1009.7 |
| 20260506043049 | 15 | 199 | 9.7 | 25.7 | 0.00 | 0.00 | 0.00 | 79 | 1009.7 |
| 20260506041556 | 15 | 227 | 11.3 | 29.0 | 0.00 | 0.00 | 0.00 | 79 | 1009.9 |
| 20260506040043 | 15 | 210 | 11.3 | 22.5 | 0.00 | 0.00 | 0.00 | 78 | 1009.8 |
| 20260506034543 | 15 | 175 | 6.4 | 17.7 | 0.00 | 0.00 | 0.00 | 77 | 1009.8 |
| 20260506033041 | 15 | 157 | 12.9 | 25.7 | 0.00 | 0.00 | 0.00 | 76 | 1009.7 |
| 20260506031543 | 15 | 249 | 8.0 | 22.5 | 0.00 | 0.00 | 0.00 | 75 | 1009.7 |
| 20260506030042 | 15 | 217 | 11.3 | 32.2 | 0.00 | 0.00 | 0.00 | 74 | 1009.7 |
| 20260506024541 | 15 | 219 | 11.3 | 22.5 | 0.00 | 0.00 | 0.00 | 73 | 1009.7 |
| 20260506023056 | 15 | 184 | 8.0 | 19.3 | 0.00 | 0.00 | 0.00 | 72 | 1009.7 |
| 20260506021603 | 16 | 190 | 6.4 | 27.4 | 0.00 | 0.00 | 0.00 | 72 | 1009.5 |
| 20260506020039 | 16 | 188 | 8.0 | 20.9 | 0.00 | 0.00 | 0.00 | 71 | 1009.5 |